Time;durP1;ratioP1;P1;durP2;ratioP2;P2;SDS_P1;SDS_P2;PMS_P1;PMS_P2;Temp;Humidity;BMP_temperature;BMP_pressure;BME280_temperature;BME280_humidity;BME280_pressure;Samples;Min_cycle;Max_cycle;Signal;HPM_P1;HPM_P2
2023/08/27 00:00:52;;;;;;;4.80;4.27;;;15.30;99.90;;;;;;5017273;28;20203;-46
2023/08/27 00:03:19;;;;;;;5.00;4.47;;;15.30;99.90;;;;;;5029014;28;20275;-49
2023/08/27 00:05:46;;;;;;;6.23;4.50;;;15.30;99.90;;;;;;5039291;28;20214;-51
2023/08/27 00:08:14;;;;;;;4.23;4.00;;;15.30;99.90;;;;;;5023585;28;20188;-50
2023/08/27 00:10:41;;;;;;;5.10;4.60;;;15.20;99.90;;;;;;5021333;28;20896;-52
2023/08/27 00:13:07;;;;;;;5.20;4.70;;;15.10;99.90;;;;;;5038038;28;20743;-52
2023/08/27 00:15:34;;;;;;;5.23;4.83;;;15.10;99.90;;;;;;5022183;28;20248;-50
2023/08/27 00:18:03;;;;;;;5.43;4.70;;;15.00;99.90;;;;;;5007665;28;20882;-51
2023/08/27 00:20:34;;;;;;;5.20;4.77;;;14.90;99.90;;;;;;5025948;28;20184;-51
2023/08/27 00:23:01;;;;;;;6.33;5.10;;;14.90;99.90;;;;;;5035836;28;20192;-53
2023/08/27 00:25:29;;;;;;;5.20;4.80;;;14.90;99.90;;;;;;5033075;28;20188;-50
2023/08/27 00:27:56;;;;;;;5.83;4.80;;;14.90;99.90;;;;;;5033820;28;20200;-48
2023/08/27 00:30:23;;;;;;;5.00;4.60;;;14.90;99.90;;;;;;5035174;28;20218;-46
2023/08/27 00:32:49;;;;;;;6.90;5.10;;;14.90;99.90;;;;;;5013784;28;20281;-50
2023/08/27 00:35:16;;;;;;;5.77;5.20;;;14.90;99.90;;;;;;5030230;28;20251;-47
2023/08/27 00:37:43;;;;;;;5.70;5.10;;;14.90;99.90;;;;;;5029969;28;20187;-49
2023/08/27 00:40:10;;;;;;;5.73;5.13;;;14.90;99.90;;;;;;5030247;28;20192;-49
2023/08/27 00:42:38;;;;;;;5.60;5.10;;;14.90;99.90;;;;;;5031389;28;20283;-49
2023/08/27 00:45:06;;;;;;;7.13;5.30;;;15.00;99.90;;;;;;5035130;28;20261;-49
2023/08/27 00:47:36;;;;;;;6.00;4.90;;;15.10;99.90;;;;;;5012443;28;20291;-53
2023/08/27 00:50:03;;;;;;;6.53;4.80;;;15.20;99.90;;;;;;5030467;28;20199;-47
2023/08/27 00:52:30;;;;;;;5.13;4.70;;;15.20;99.90;;;;;;5029903;28;20199;-52
2023/08/27 00:55:01;;;;;;;5.67;5.17;;;15.20;99.90;;;;;;5033232;28;20219;-52
2023/08/27 00:57:28;;;;;;;5.53;5.13;;;15.20;99.90;;;;;;5025609;28;20871;-46
2023/08/27 00:59:58;;;;;;;5.30;4.87;;;15.10;99.90;;;;;;5033434;28;20215;-49
2023/08/27 01:02:25;;;;;;;7.37;6.23;;;15.10;99.90;;;;;;5009061;28;21388;-49
2023/08/27 01:04:52;;;;;;;5.63;5.00;;;15.10;99.90;;;;;;5031955;28;20711;-51
2023/08/27 01:07:31;;;;;;;5.17;4.60;;;15.20;99.90;;;;;;5032346;28;20248;-48
2023/08/27 01:10:03;;;;;;;5.93;5.40;;;15.10;99.90;;;;;;5023714;28;20261;-47
2023/08/27 01:12:36;;;;;;;5.57;4.90;;;15.10;99.90;;;;;;5029209;28;20188;-49
2023/08/27 01:15:07;;;;;;;8.70;5.67;;;15.00;99.90;;;;;;5029393;28;20282;-50
2023/08/27 01:17:36;;;;;;;6.03;5.30;;;14.90;99.90;;;;;;5010917;28;20224;-50
2023/08/27 01:20:05;;;;;;;5.03;4.63;;;14.80;99.90;;;;;;5029659;28;20188;-47
2023/08/27 01:22:33;;;;;;;5.77;5.17;;;;;;;;;;5015753;28;20277;-52
2023/08/27 01:25:00;;;;;;;5.70;5.13;;;14.70;99.90;;;;;;5031586;28;20214;-50
2023/08/27 01:27:30;;;;;;;5.47;4.97;;;14.70;99.90;;;;;;5021796;28;20200;-50
2023/08/27 01:30:04;;;;;;;5.27;4.77;;;14.60;99.90;;;;;;5034215;28;20253;-50
2023/08/27 01:32:38;;;;;;;6.13;5.23;;;14.70;99.90;;;;;;5028715;28;20215;-50
2023/08/27 01:35:07;;;;;;;5.63;4.90;;;14.70;99.90;;;;;;5015772;28;20220;-49
2023/08/27 01:37:36;;;;;;;5.80;5.20;;;14.70;99.90;;;;;;5027436;28;20203;-49
2023/08/27 01:40:05;;;;;;;5.40;4.87;;;14.80;99.90;;;;;;5027449;28;20200;-49
2023/08/27 01:42:32;;;;;;;5.27;4.73;;;14.80;99.90;;;;;;5025769;28;20254;-46
2023/08/27 01:44:59;;;;;;;6.87;4.60;;;14.80;99.90;;;;;;5022066;28;20212;-47
2023/08/27 01:47:26;;;;;;;4.17;3.87;;;14.90;99.90;;;;;;5016584;28;20200;-51
2023/08/27 01:49:53;;;;;;;5.30;4.53;;;14.90;99.90;;;;;;5010893;28;20689;-52
2023/08/27 01:52:20;;;;;;;4.93;4.50;;;15.00;99.90;;;;;;5025508;28;20211;-46
2023/08/27 01:54:48;;;;;;;5.57;4.57;;;15.00;99.90;;;;;;5029475;28;20242;-48
2023/08/27 01:57:15;;;;;;;5.87;4.60;;;14.90;99.90;;;;;;5018118;28;20260;-46
2023/08/27 01:59:42;;;;;;;4.90;4.50;;;14.90;99.90;;;;;;5029168;28;20192;-51
2023/08/27 02:02:09;;;;;;;4.90;4.37;;;14.90;99.90;;;;;;5026383;28;20192;-47
2023/08/27 02:04:37;;;;;;;8.07;4.70;;;15.00;99.90;;;;;;5009268;28;20220;-46
2023/08/27 02:07:04;;;;;;;4.97;4.53;;;15.00;99.90;;;;;;5028941;28;20237;-48
2023/08/27 02:09:31;;;;;;;5.93;4.10;;;15.00;99.90;;;;;;5026357;28;20820;-51
2023/08/27 02:11:59;;;;;;;4.87;4.47;;;15.00;99.90;;;;;;5026391;28;20208;-48
2023/08/27 02:14:26;;;;;;;5.00;4.20;;;15.00;99.90;;;;;;5024270;28;20219;-48
2023/08/27 02:16:53;;;;;;;5.27;4.10;;;14.90;99.90;;;;;;5023458;28;20196;-49
2023/08/27 02:19:21;;;;;;;4.40;4.00;;;14.90;99.90;;;;;;5019215;28;20206;-49
2023/08/27 02:21:47;;;;;;;4.73;4.40;;;14.90;99.90;;;;;;5016923;28;20196;-47
2023/08/27 02:24:14;;;;;;;4.60;4.20;;;15.00;99.90;;;;;;5026111;28;20222;-49
2023/08/27 02:26:41;;;;;;;5.17;4.20;;;14.90;99.90;;;;;;5036097;28;20237;-49
2023/08/27 02:29:09;;;;;;;4.63;4.23;;;14.90;99.90;;;;;;5027455;28;20314;-47
2023/08/27 02:31:36;;;;;;;6.27;4.60;;;14.80;99.90;;;;;;5031802;28;20216;-48
2023/08/27 02:34:03;;;;;;;4.00;3.67;;;14.70;99.90;;;;;;5020922;28;20212;-48
2023/08/27 02:36:30;;;;;;;4.30;3.90;;;14.70;99.90;;;;;;5014203;28;20199;-51
2023/08/27 02:38:57;;;;;;;4.13;3.83;;;14.60;99.90;;;;;;5026193;28;20199;-49
2023/08/27 02:41:23;;;;;;;4.30;3.87;;;14.50;99.90;;;;;;5021573;28;20626;-50
2023/08/27 02:43:50;;;;;;;4.53;3.90;;;14.40;99.90;;;;;;5027821;28;20212;-49
2023/08/27 02:46:18;;;;;;;5.10;4.60;;;14.40;99.90;;;;;;5024122;28;20199;-47
2023/08/27 02:48:45;;;;;;;4.77;4.37;;;14.40;99.90;;;;;;5023004;28;20200;-48
2023/08/27 02:51:12;;;;;;;4.47;4.13;;;14.30;99.90;;;;;;5006767;28;20235;-47
2023/08/27 02:53:40;;;;;;;4.60;4.20;;;14.30;99.90;;;;;;5015726;28;20210;-47
2023/08/27 02:56:07;;;;;;;5.50;4.07;;;14.30;99.90;;;;;;5020360;28;20249;-48
2023/08/27 02:58:34;;;;;;;4.87;4.00;;;14.20;99.90;;;;;;5026660;28;20196;-47
2023/08/27 03:01:01;;;;;;;3.50;3.20;;;14.20;99.90;;;;;;5028403;28;20196;-47
2023/08/27 03:03:29;;;;;;;4.30;3.90;;;14.30;99.90;;;;;;5024996;28;20268;-51
2023/08/27 03:05:56;;;;;;;5.00;3.50;;;14.30;99.90;;;;;;5020464;28;20715;-48
2023/08/27 03:08:23;;;;;;;4.27;3.83;;;14.30;99.90;;;;;;5011223;28;20239;-51
2023/08/27 03:10:50;;;;;;;4.77;4.10;;;14.30;99.90;;;;;;5026026;28;20192;-50
2023/08/27 03:13:17;;;;;;;4.90;4.10;;;14.30;99.90;;;;;;5023954;28;20198;-49
2023/08/27 03:15:43;;;;;;;4.77;4.03;;;14.30;99.90;;;;;;5028291;28;20234;-47
2023/08/27 03:18:11;;;;;;;3.80;3.50;;;14.20;99.90;;;;;;5020691;28;20199;-49
2023/08/27 03:20:39;;;;;;;6.50;4.27;;;14.20;99.90;;;;;;5029211;28;20200;-51
2023/08/27 03:23:06;;;;;;;4.67;3.33;;;14.20;99.90;;;;;;5007973;28;20212;-48
2023/08/27 03:25:33;;;;;;;3.70;3.40;;;14.10;99.90;;;;;;5032181;28;20204;-50
2023/08/27 03:28:00;;;;;;;3.27;2.97;;;14.10;99.90;;;;;;5029453;28;20279;-49
2023/08/27 03:30:27;;;;;;;3.20;3.00;;;14.10;99.90;;;;;;5027711;28;20252;-49
2023/08/27 03:32:54;;;;;;;3.23;3.00;;;14.20;99.90;;;;;;5016519;28;20280;-51
2023/08/27 03:35:22;;;;;;;4.60;4.07;;;14.20;99.90;;;;;;5022305;28;20257;-46
2023/08/27 03:37:50;;;;;;;3.30;2.93;;;14.20;99.90;;;;;;5010145;28;20207;-52
2023/08/27 03:40:17;;;;;;;3.60;3.30;;;14.10;99.90;;;;;;5022126;28;20253;-49
2023/08/27 03:42:44;;;;;;;3.87;3.57;;;14.00;99.90;;;;;;5026503;28;20180;-47
2023/08/27 03:45:11;;;;;;;3.67;3.37;;;14.00;99.90;;;;;;5028891;28;20219;-48
2023/08/27 03:47:38;;;;;;;5.47;4.17;;;14.10;99.90;;;;;;5023038;28;20309;-48
2023/08/27 03:50:06;;;;;;;6.23;3.90;;;14.00;99.90;;;;;;5027344;28;20720;-48
2023/08/27 03:52:34;;;;;;;4.70;2.97;;;14.00;99.90;;;;;;5026260;28;20214;-48
2023/08/27 03:55:02;;;;;;;3.80;3.50;;;14.00;99.90;;;;;;5008978;28;20223;-50
2023/08/27 03:57:29;;;;;;;3.53;3.23;;;14.00;99.90;;;;;;5022155;28;20305;-51
2023/08/27 03:59:56;;;;;;;3.40;3.10;;;14.00;99.90;;;;;;5024647;28;20242;-46
2023/08/27 04:02:23;;;;;;;3.40;3.10;;;14.00;99.90;;;;;;5011942;28;20696;-48
2023/08/27 04:04:50;;;;;;;4.20;3.43;;;13.90;99.90;;;;;;5023343;28;20985;-49
2023/08/27 04:07:17;;;;;;;3.47;3.17;;;13.90;99.90;;;;;;5021811;28;20207;-49
2023/08/27 04:09:43;;;;;;;3.40;3.20;;;13.80;99.90;;;;;;5006971;28;20203;-53
2023/08/27 04:12:12;;;;;;;4.43;3.33;;;13.80;99.90;;;;;;5025617;28;20234;-49
2023/08/27 04:14:38;;;;;;;3.73;3.30;;;13.80;99.90;;;;;;5024795;28;20919;-51
2023/08/27 04:17:05;;;;;;;3.77;3.27;;;13.90;99.90;;;;;;5027848;28;20539;-51
2023/08/27 04:19:32;;;;;;;3.50;3.20;;;13.90;99.90;;;;;;5025237;28;20195;-48
2023/08/27 04:21:59;;;;;;;3.90;3.60;;;14.00;99.90;;;;;;5020449;28;20210;-52
2023/08/27 04:24:28;;;;;;;3.43;3.23;;;13.90;99.90;;;;;;5013168;28;20272;-47
2023/08/27 04:26:58;;;;;;;5.67;3.43;;;13.90;99.90;;;;;;5027650;28;20239;-49
2023/08/27 04:29:26;;;;;;;7.23;3.23;;;13.70;99.90;;;;;;5022329;28;20261;-48
2023/08/27 04:31:54;;;;;;;3.67;3.37;;;13.70;99.90;;;;;;5031841;28;20955;-46
2023/08/27 04:34:20;;;;;;;3.97;2.97;;;13.70;99.90;;;;;;5031883;28;20251;-47
2023/08/27 04:36:47;;;;;;;4.30;3.50;;;13.70;99.90;;;;;;5018475;28;20211;-49
2023/08/27 04:39:14;;;;;;;3.70;3.07;;;13.60;99.90;;;;;;5027727;28;20810;-49
2023/08/27 04:41:41;;;;;;;5.23;3.07;;;13.60;99.90;;;;;;5012883;28;20204;-48
2023/08/27 04:44:08;;;;;;;3.30;3.00;;;13.60;99.90;;;;;;5031898;28;20698;-52
2023/08/27 04:46:36;;;;;;;9.87;4.13;;;13.70;99.90;;;;;;5032168;28;20199;-47
2023/08/27 04:49:03;;;;;;;3.97;3.00;;;13.80;99.90;;;;;;5030032;28;20203;-49
2023/08/27 04:51:30;;;;;;;5.13;3.33;;;13.80;99.90;;;;;;5014705;28;20212;-46
2023/08/27 04:53:57;;;;;;;3.33;3.03;;;13.80;99.90;;;;;;5015120;28;20224;-48
2023/08/27 04:56:24;;;;;;;2.90;2.70;;;13.90;99.90;;;;;;5002392;28;20208;-51
2023/08/27 04:58:51;;;;;;;3.40;3.17;;;13.90;99.90;;;;;;5026719;28;20204;-50
2023/08/27 05:01:17;;;;;;;3.23;2.93;;;13.90;99.90;;;;;;5026737;28;20264;-47
2023/08/27 05:03:46;;;;;;;3.23;3.03;;;13.90;99.90;;;;;;5029471;28;20578;-51
2023/08/27 05:06:12;;;;;;;3.03;2.80;;;13.80;99.90;;;;;;5017297;28;20204;-49
2023/08/27 05:08:42;;;;;;;3.37;3.07;;;13.80;99.90;;;;;;5018512;28;20212;-48
2023/08/27 05:11:08;;;;;;;3.30;3.10;;;13.90;99.90;;;;;;4992873;28;20205;-46
2023/08/27 05:13:36;;;;;;;3.50;3.20;;;13.90;99.90;;;;;;5025826;28;20302;-53
2023/08/27 05:16:03;;;;;;;2.77;2.57;;;13.90;99.90;;;;;;5024371;28;20197;-46
2023/08/27 05:18:32;;;;;;;7.13;3.20;;;13.90;99.90;;;;;;5024030;28;20191;-48
2023/08/27 05:21:00;;;;;;;3.30;3.00;;;13.80;99.90;;;;;;5020879;28;20576;-45
2023/08/27 05:23:27;;;;;;;3.40;3.10;;;13.80;99.90;;;;;;5012574;28;20586;-53
2023/08/27 05:25:54;;;;;;;3.43;3.13;;;13.90;99.90;;;;;;5006616;28;20286;-46
2023/08/27 05:28:21;;;;;;;3.93;3.63;;;13.80;99.90;;;;;;5012371;28;20200;-50
2023/08/27 05:30:48;;;;;;;3.80;3.40;;;13.80;99.90;;;;;;5023273;28;20203;-48
2023/08/27 05:33:16;;;;;;;4.00;3.27;;;13.80;99.90;;;;;;5024329;28;20220;-48
2023/08/27 05:35:43;;;;;;;3.83;3.53;;;13.80;99.90;;;;;;5029720;28;20230;-50
2023/08/27 05:38:11;;;;;;;5.73;3.17;;;13.80;99.90;;;;;;5019326;28;20200;-48
2023/08/27 05:40:38;;;;;;;3.83;3.40;;;13.80;99.90;;;;;;5021711;28;20215;-48
2023/08/27 05:43:05;;;;;;;3.70;3.40;;;13.80;99.90;;;;;;4996630;28;20242;-50
2023/08/27 05:45:31;;;;;;;5.20;3.80;;;13.90;99.90;;;;;;5028955;28;20196;-46
2023/08/27 05:47:58;;;;;;;3.77;3.50;;;13.90;99.90;;;;;;5027178;28;20200;-50
2023/08/27 05:50:25;;;;;;;4.70;4.13;;;13.90;99.90;;;;;;5022094;28;20331;-46
2023/08/27 05:52:52;;;;;;;3.87;3.53;;;13.90;99.90;;;;;;5023842;28;20763;-52
2023/08/27 05:55:21;;;;;;;3.87;3.53;;;14.00;99.90;;;;;;5001953;28;20239;-49
2023/08/27 05:57:48;;;;;;;4.43;4.03;;;14.00;99.90;;;;;;4997970;28;20752;-48
2023/08/27 06:00:16;;;;;;;5.33;3.80;;;14.10;99.90;;;;;;5005728;28;20200;-49
2023/08/27 06:02:43;;;;;;;4.13;3.33;;;14.10;99.90;;;;;;5022763;28;20314;-46
2023/08/27 06:05:11;;;;;;;4.03;3.63;;;14.10;99.90;;;;;;5029019;28;20243;-46
2023/08/27 06:07:38;;;;;;;4.00;3.67;;;14.10;99.90;;;;;;5030007;28;20199;-44
2023/08/27 06:10:08;;;;;;;4.30;3.90;;;14.10;99.90;;;;;;5012763;28;20291;-49
2023/08/27 06:12:36;;;;;;;3.87;3.60;;;14.10;99.90;;;;;;5017091;28;20226;-49
2023/08/27 06:15:04;;;;;;;3.90;3.60;;;14.10;99.90;;;;;;4994123;28;20309;-48
2023/08/27 06:17:31;;;;;;;3.63;3.33;;;14.20;99.90;;;;;;5027280;28;20212;-46
2023/08/27 06:19:58;;;;;;;3.97;3.67;;;14.20;99.90;;;;;;5035358;28;20195;-50
2023/08/27 06:22:25;;;;;;;4.63;4.17;;;14.30;99.90;;;;;;5028911;28;20199;-50
2023/08/27 06:24:52;;;;;;;4.27;3.97;;;14.30;99.90;;;;;;5023031;28;20252;-44
2023/08/27 06:27:19;;;;;;;4.50;4.17;;;14.30;99.90;;;;;;5015352;28;20204;-44
2023/08/27 06:29:47;;;;;;;5.43;4.10;;;14.40;99.90;;;;;;4983912;28;20318;-52
2023/08/27 06:32:16;;;;;;;4.43;4.13;;;14.40;99.90;;;;;;5013251;28;20327;-47
2023/08/27 06:34:43;;;;;;;4.47;4.10;;;14.40;99.90;;;;;;5023614;28;20212;-44
2023/08/27 06:37:10;;;;;;;4.40;4.00;;;14.40;99.90;;;;;;5022139;28;20242;-45
2023/08/27 06:39:37;;;;;;;4.60;4.20;;;14.40;99.90;;;;;;5027470;28;20228;-52
2023/08/27 06:42:05;;;;;;;4.53;4.07;;;14.50;99.90;;;;;;5014958;28;20608;-52
2023/08/27 06:44:34;;;;;;;5.60;4.53;;;14.50;99.90;;;;;;4998249;28;20617;-48
2023/08/27 06:47:02;;;;;;;4.40;4.10;;;14.60;99.90;;;;;;5013301;28;20219;-49
2023/08/27 06:49:31;;;;;;;4.40;4.10;;;14.60;99.90;;;;;;5018239;28;20282;-44
2023/08/27 06:51:58;;;;;;;4.60;4.30;;;14.60;99.90;;;;;;5030244;28;20253;-49
2023/08/27 06:54:24;;;;;;;4.47;4.10;;;14.70;99.90;;;;;;5021816;28;20212;-49
2023/08/27 06:56:51;;;;;;;3.83;3.53;;;14.70;99.90;;;;;;5025835;28;20577;-49
2023/08/27 06:59:19;;;;;;;5.20;4.20;;;14.80;99.90;;;;;;5014928;28;20223;-49
2023/08/27 07:01:46;;;;;;;3.93;3.73;;;14.80;99.90;;;;;;4998326;28;20200;-47
2023/08/27 07:04:15;;;;;;;3.87;3.67;;;14.80;99.90;;;;;;5012323;28;20235;-47
2023/08/27 07:06:42;;;;;;;4.43;4.03;;;14.80;99.90;;;;;;5027353;28;20192;-49
2023/08/27 07:09:09;;;;;;;4.00;3.70;;;14.80;99.90;;;;;;5024429;28;20682;-51
2023/08/27 07:11:36;;;;;;;4.23;3.97;;;14.80;99.90;;;;;;5029069;28;20246;-51
2023/08/27 07:14:02;;;;;;;4.83;4.00;;;15.00;99.90;;;;;;5014145;28;20222;-49
2023/08/27 07:16:30;;;;;;;5.10;4.60;;;15.00;99.90;;;;;;5008941;28;20239;-46
2023/08/27 07:18:57;;;;;;;4.83;4.20;;;15.10;99.90;;;;;;5007657;28;20231;-49
2023/08/27 07:21:25;;;;;;;4.47;4.07;;;15.30;99.90;;;;;;5022123;28;20190;-48
2023/08/27 07:23:52;;;;;;;6.07;4.30;;;15.30;99.90;;;;;;5029976;28;20299;-45
2023/08/27 07:26:19;;;;;;;6.67;4.53;;;;;;;;;;5021313;28;20259;-46
2023/08/27 07:28:47;;;;;;;5.30;4.50;;;16.60;99.90;;;;;;5016687;28;20196;-46
2023/08/27 07:31:14;;;;;;;4.23;3.83;;;15.60;99.90;;;;;;4992609;28;20301;-49
2023/08/27 07:33:41;;;;;;;6.10;4.23;;;15.80;99.90;;;;;;5013511;28;20223;-44
2023/08/27 07:36:08;;;;;;;4.77;4.07;;;15.90;99.90;;;;;;5015530;28;20204;-52
2023/08/27 07:38:40;;;;;;;4.40;3.70;;;16.00;99.90;;;;;;5022421;28;20203;-44
2023/08/27 07:41:07;;;;;;;4.20;3.70;;;16.10;99.90;;;;;;5025393;28;20198;-53
2023/08/27 07:43:34;;;;;;;3.97;3.40;;;16.20;99.90;;;;;;5025809;28;20214;-49
2023/08/27 07:46:00;;;;;;;3.73;3.43;;;16.20;99.90;;;;;;5001655;28;20208;-52
2023/08/27 07:48:28;;;;;;;3.83;3.50;;;16.30;99.90;;;;;;5004989;28;20204;-48
2023/08/27 07:50:55;;;;;;;9.53;5.30;;;16.30;99.90;;;;;;5017823;28;20196;-49
2023/08/27 07:53:22;;;;;;;4.97;3.13;;;16.40;99.90;;;;;;5018993;28;20242;-49
2023/08/27 07:55:51;;;;;;;3.93;3.63;;;16.50;99.90;;;;;;5023445;28;20204;-49
2023/08/27 07:58:18;;;;;;;4.53;3.30;;;16.60;99.90;;;;;;4979840;28;1074710;-51
2023/08/27 08:00:44;;;;;;;3.83;3.00;;;16.90;99.90;;;;;;5022655;28;20206;-47
2023/08/27 08:03:11;;;;;;;3.30;3.10;;;16.90;99.90;;;;;;4999354;28;20285;-52
2023/08/27 08:05:38;;;;;;;7.40;3.30;;;16.80;99.90;;;;;;5013831;28;20568;-48
2023/08/27 08:08:06;;;;;;;5.07;2.83;;;16.90;99.90;;;;;;5023073;28;20196;-44
2023/08/27 08:10:33;;;;;;;3.20;2.90;;;17.00;99.90;;;;;;5027684;28;20258;-49
2023/08/27 08:13:01;;;;;;;2.80;2.60;;;17.10;99.90;;;;;;5025004;28;20961;-44
2023/08/27 08:15:27;;;;;;;3.50;2.80;;;17.10;99.90;;;;;;5027404;28;20207;-53
2023/08/27 08:17:54;;;;;;;4.43;3.03;;;17.20;99.90;;;;;;4995567;28;20200;-53
2023/08/27 08:20:21;;;;;;;4.23;3.17;;;17.20;99.90;;;;;;5017178;28;20200;-50
2023/08/27 08:22:48;;;;;;;4.23;2.87;;;17.30;99.90;;;;;;5023959;28;20242;-53
2023/08/27 08:25:15;;;;;;;4.73;3.10;;;17.40;99.90;;;;;;5012612;28;20258;-50
2023/08/27 08:27:41;;;;;;;3.00;2.80;;;17.60;99.90;;;;;;5026181;28;20238;-54
2023/08/27 08:30:10;;;;;;;4.40;2.90;;;17.20;99.90;;;;;;5014407;28;20199;-51
2023/08/27 08:32:37;;;;;;;3.43;3.13;;;17.70;99.90;;;;;;5022134;28;20201;-47
2023/08/27 08:35:04;;;;;;;3.67;2.70;;;17.80;99.90;;;;;;4999000;28;20887;-47
2023/08/27 08:37:31;;;;;;;2.73;2.53;;;17.90;99.90;;;;;;5018245;28;20200;-48
2023/08/27 08:39:58;;;;;;;3.20;2.50;;;18.00;99.90;;;;;;5017414;28;20196;-46
2023/08/27 08:42:32;;;;;;;3.40;2.70;;;18.10;99.90;;;;;;5029589;28;20191;-44
2023/08/27 08:45:09;;;;;;;4.73;2.60;;;18.10;99.90;;;;;;5017018;28;20239;-50
2023/08/27 08:47:37;;;;;;;4.10;2.30;;;18.20;99.90;;;;;;5027799;28;20199;-48
2023/08/27 08:50:08;;;;;;;4.07;2.43;;;18.30;99.90;;;;;;4996483;28;20226;-46
2023/08/27 08:52:37;;;;;;;3.27;2.73;;;18.40;99.90;;;;;;5018054;28;20204;-47
2023/08/27 08:55:08;;;;;;;3.40;2.80;;;18.50;99.90;;;;;;5018966;28;20242;-47
2023/08/27 08:57:38;;;;;;;3.77;2.80;;;18.60;99.90;;;;;;5029046;28;20295;-49
2023/08/27 09:00:07;;;;;;;3.83;2.57;;;18.60;99.90;;;;;;5015679;28;20200;-50
2023/08/27 09:02:37;;;;;;;3.37;2.57;;;18.80;99.90;;;;;;5019627;28;20203;-51
2023/08/27 09:05:08;;;;;;;2.90;2.57;;;18.80;99.90;;;;;;5007315;28;20388;-48
2023/08/27 09:07:36;;;;;;;2.60;2.40;;;18.90;99.90;;;;;;5015779;28;20202;-50
2023/08/27 09:10:03;;;;;;;4.03;2.50;;;19.00;99.90;;;;;;5010291;28;20203;-50
2023/08/27 09:12:31;;;;;;;2.60;2.40;;;19.00;99.90;;;;;;5022615;28;20431;-46
2023/08/27 09:14:58;;;;;;;3.30;2.37;;;19.10;99.90;;;;;;5013315;28;20277;-44
2023/08/27 09:17:25;;;;;;;2.40;2.30;;;19.10;99.90;;;;;;5023503;28;20229;-47
2023/08/27 09:19:53;;;;;;;2.40;2.00;;;19.20;99.90;;;;;;5006906;28;20200;-51
2023/08/27 09:22:20;;;;;;;3.20;2.30;;;19.20;99.90;;;;;;5025367;28;20204;-45
2023/08/27 09:24:47;;;;;;;2.30;2.10;;;19.30;99.90;;;;;;5007217;28;20212;-52
2023/08/27 09:27:14;;;;;;;2.20;2.00;;;19.30;99.90;;;;;;5022420;28;20207;-47
2023/08/27 09:29:42;;;;;;;2.60;2.40;;;19.40;99.90;;;;;;5026632;28;20322;-50
2023/08/27 09:32:20;;;;;;;3.20;2.10;;;19.50;99.90;;;;;;5025350;28;20191;-47
2023/08/27 09:34:47;;;;;;;3.17;2.30;;;19.60;99.90;;;;;;5015581;28;20223;-49
2023/08/27 09:37:15;;;;;;;2.73;2.53;;;19.70;99.90;;;;;;5017223;28;20202;-45
2023/08/27 09:39:44;;;;;;;2.40;2.20;;;19.80;99.90;;;;;;5011406;28;20266;-45
2023/08/27 09:42:12;;;;;;;1.97;1.87;;;19.90;99.90;;;;;;5017490;28;20778;-44
2023/08/27 09:44:39;;;;;;;3.23;2.23;;;19.90;99.90;;;;;;5037324;28;20208;-47
2023/08/27 09:47:08;;;;;;;2.20;1.83;;;20.00;99.90;;;;;;5029880;28;20256;-44
2023/08/27 09:49:40;;;;;;;4.90;2.20;;;20.00;99.90;;;;;;5031546;28;20204;-47
2023/08/27 09:52:08;;;;;;;4.73;2.27;;;20.00;99.90;;;;;;5014261;28;20205;-50
2023/08/27 09:54:37;;;;;;;5.50;2.57;;;20.10;99.90;;;;;;5031136;28;20238;-49
2023/08/27 09:57:04;;;;;;;5.13;2.67;;;20.10;99.90;;;;;;5004613;28;20200;-45
2023/08/27 09:59:31;;;;;;;4.00;2.20;;;20.20;99.90;;;;;;5033363;28;20206;-50
2023/08/27 10:01:58;;;;;;;4.07;2.30;;;20.30;99.90;;;;;;5025444;28;20192;-45
2023/08/27 10:04:25;;;;;;;2.03;1.80;;;20.30;99.90;;;;;;5029375;28;20266;-49
2023/08/27 10:06:52;;;;;;;3.20;2.00;;;20.40;99.90;;;;;;5006429;28;20293;-50
2023/08/27 10:09:20;;;;;;;2.37;1.90;;;20.30;99.90;;;;;;5029874;28;20257;-46
2023/08/27 10:11:48;;;;;;;2.40;1.90;;;20.40;99.90;;;;;;5004457;28;20204;-50
2023/08/27 10:14:16;;;;;;;3.67;2.03;;;20.40;99.90;;;;;;5022407;28;20273;-43
2023/08/27 10:16:43;;;;;;;4.00;2.25;;;20.50;99.90;;;;;;5024346;28;20202;-49
2023/08/27 10:19:10;;;;;;;2.40;2.20;;;20.60;99.90;;;;;;5024342;28;20249;-48
2023/08/27 10:21:37;;;;;;;3.30;2.40;;;20.60;99.90;;;;;;5023886;28;20686;-51
2023/08/27 10:24:06;;;;;;;3.80;2.22;;;20.70;99.90;;;;;;5011092;28;20965;-45
2023/08/27 10:26:33;;;;;;;2.40;1.98;;;20.70;99.90;;;;;;5014896;28;20204;-45
2023/08/27 10:29:04;;;;;;;4.13;1.90;;;20.70;99.90;;;;;;5003640;28;20220;-42
2023/08/27 10:31:31;;;;;;;1.98;1.65;;;20.80;99.90;;;;;;5020009;28;20192;-42
2023/08/27 10:33:58;;;;;;;2.17;1.90;;;20.80;99.90;;;;;;5017747;28;20230;-45
2023/08/27 10:36:31;;;;;;;2.22;2.13;;;20.90;99.90;;;;;;5022103;28;20874;-44
2023/08/27 10:39:01;;;;;;;4.18;2.13;;;21.00;99.90;;;;;;5001605;28;20204;-45
2023/08/27 10:41:29;;;;;;;2.58;1.98;;;20.90;99.90;;;;;;5011327;28;20205;-48
2023/08/27 10:43:56;;;;;;;3.08;2.08;;;20.90;99.90;;;;;;5011623;28;20235;-45
2023/08/27 10:46:25;;;;;;;3.80;1.80;;;20.90;99.90;;;;;;5022904;28;20227;-46
2023/08/27 10:48:54;;;;;;;2.20;1.70;;;20.90;99.90;;;;;;5015141;28;20242;-45
2023/08/27 10:51:27;;;;;;;4.40;2.17;;;21.00;99.90;;;;;;5032002;28;20207;-47
2023/08/27 10:53:57;;;;;;;2.83;2.13;;;21.00;99.90;;;;;;5002875;28;20957;-45
2023/08/27 10:56:29;;;;;;;3.28;1.80;;;20.90;99.90;;;;;;5030676;28;20239;-44
2023/08/27 10:59:00;;;;;;;1.88;1.77;;;20.90;99.90;;;;;;5008674;28;20211;-50
2023/08/27 11:01:29;;;;;;;4.32;2.08;;;21.00;99.90;;;;;;5017377;28;20204;-54
2023/08/27 11:03:58;;;;;;;1.77;1.67;;;21.00;99.90;;;;;;5016120;28;20227;-42
2023/08/27 11:06:44;;;;;;;3.17;2.17;;;21.00;99.90;;;;;;5018839;28;20655;-52
2023/08/27 11:09:20;;;;;;;3.15;2.10;;;21.00;99.90;;;;;;5007419;28;20670;-45
2023/08/27 11:11:50;;;;;;;3.95;1.90;;;21.00;99.90;;;;;;5018102;28;20970;-46
2023/08/27 11:14:18;;;;;;;2.10;1.90;;;21.00;99.90;;;;;;5016495;28;20224;-52
2023/08/27 11:16:48;;;;;;;2.85;1.80;;;21.10;99.90;;;;;;5019474;28;20289;-46
2023/08/27 11:19:25;;;;;;;1.85;1.48;;;21.00;99.90;;;;;;5028565;28;20191;-44
2023/08/27 11:21:51;;;;;;;2.22;2.03;;;21.00;99.90;;;;;;5012384;28;20847;-44
2023/08/27 11:24:21;;;;;;;2.35;1.77;;;21.00;99.90;;;;;;5009405;28;20224;-41
2023/08/27 11:26:49;;;;;;;3.47;1.90;;;21.10;99.90;;;;;;5010899;28;20206;-47
2023/08/27 11:29:17;;;;;;;3.05;1.98;;;21.00;99.90;;;;;;5024636;28;20286;-46
2023/08/27 11:31:46;;;;;;;2.05;1.85;;;21.10;99.90;;;;;;5014235;28;20602;-56
2023/08/27 11:34:15;;;;;;;2.35;1.63;;;21.00;99.90;;;;;;5019709;28;20223;-47
2023/08/27 11:36:44;;;;;;;2.60;1.95;;;21.00;99.90;;;;;;5016014;28;20254;-57
2023/08/27 11:39:12;;;;;;;1.85;1.67;;;21.00;99.90;;;;;;5024151;28;20279;-41
2023/08/27 11:41:40;;;;;;;3.88;1.95;;;21.00;99.90;;;;;;5004782;28;20214;-54
2023/08/27 11:44:10;;;;;;;1.70;1.60;;;20.80;99.90;;;;;;5013219;28;20270;-44
2023/08/27 11:46:37;;;;;;;2.22;2.13;;;20.80;99.90;;;;;;5013866;28;20299;-57
2023/08/27 11:49:07;;;;;;;2.95;2.00;;;20.80;99.90;;;;;;5022937;28;20204;-47
2023/08/27 11:51:35;;;;;;;1.95;1.55;;;20.70;99.90;;;;;;5023397;28;20745;-58
2023/08/27 11:54:06;;;;;;;1.85;1.63;;;20.60;99.90;;;;;;5021205;28;20317;-47
2023/08/27 11:56:35;;;;;;;1.60;1.50;;;20.50;99.90;;;;;;5008563;28;20213;-57
2023/08/27 11:59:04;;;;;;;2.53;1.80;;;20.40;99.90;;;;;;5023015;28;20204;-45
2023/08/27 12:01:32;;;;;;;2.17;1.58;;;20.40;99.90;;;;;;5012796;28;20208;-58
2023/08/27 12:03:59;;;;;;;2.65;1.67;;;20.30;99.90;;;;;;5014955;28;20219;-50
2023/08/27 12:06:28;;;;;;;5.40;2.60;;;20.20;99.90;;;;;;5022519;28;20188;-52
2023/08/27 12:08:56;;;;;;;2.60;1.75;;;20.20;99.90;;;;;;5020920;28;20199;-45
2023/08/27 12:11:25;;;;;;;2.40;2.05;;;20.00;99.90;;;;;;5001826;28;20208;-45
2023/08/27 12:13:55;;;;;;;3.78;2.40;;;19.80;99.90;;;;;;5029661;28;20227;-49
2023/08/27 12:16:28;;;;;;;2.40;2.20;;;19.80;99.90;;;;;;5005532;28;22681;-51
2023/08/27 12:19:01;;;;;;;2.90;2.17;;;19.70;99.90;;;;;;5028239;28;20219;-52
2023/08/27 12:21:33;;;;;;;2.57;2.43;;;19.40;99.90;;;;;;5024122;28;20192;-53
2023/08/27 12:24:00;;;;;;;2.70;2.50;;;18.80;99.90;;;;;;5021030;28;20234;-50
2023/08/27 12:26:27;;;;;;;3.57;2.83;;;18.30;99.90;;;;;;5010010;28;21824;-53
2023/08/27 12:28:54;;;;;;;3.60;3.10;;;17.80;99.90;;;;;;5032405;28;20191;-46
2023/08/27 12:31:25;;;;;;;3.97;3.17;;;17.40;99.90;;;;;;5013704;28;22110;-53
2023/08/27 12:33:57;;;;;;;7.53;3.50;;;17.20;99.90;;;;;;5029826;28;20225;-43
2023/08/27 12:36:25;;;;;;;7.33;4.40;;;17.00;99.90;;;;;;5032387;28;20275;-46
2023/08/27 12:38:53;;;;;;;4.83;3.37;;;16.90;99.90;;;;;;5021512;28;20214;-46
2023/08/27 12:41:21;;;;;;;5.90;2.80;;;16.60;99.90;;;;;;5024047;28;20204;-51
2023/08/27 12:43:47;;;;;;;3.97;3.57;;;16.40;99.90;;;;;;5006073;28;20716;-49
2023/08/27 12:46:14;;;;;;;2.87;2.67;;;16.40;99.90;;;;;;5010830;28;20203;-57
2023/08/27 12:48:41;;;;;;;4.70;3.37;;;16.50;99.90;;;;;;5018812;28;20208;-51
2023/08/27 12:51:08;;;;;;;4.23;3.80;;;16.60;99.90;;;;;;5024918;28;20192;-56